Terminal Aerodrome Forecast
Issued by NWS Cleveland, OH

Home | Current Version | Previous Version | Text Only | Print | Product List | Glossary Off
Versions: 1 2 3 4 5 6 7 8 9 10 11 12 13 14 15 16

000
FTUS41 KCLE 171732
TAFMFD
TAF
KMFD 171732Z 1718/1818 VRB03KT P6SM SCT040
     FM181000 19003KT 5SM BR SCT025 BKN100
     FM181400 21005KT P6SM SCT040=

USA.gov is the U.S. government's official web portal to all federal, state and local government web resources and services.